Doris Moran — WRU2125 — position and weather

sailwx.info

Track history (hours):
 
Tides and Currents Weather Stations Pressure Air Temp Water Temp Dewpoint Dewpoint Depression Visibility Wind Speed Wind Dir Waves Ship Positions

Doris Moran

Owner: MORAN TOWING CORPORATION, New Canaan, CT. More information available from US FCC via Universal Licensing System and Coast Guard Vessel Documentation Center.

Last reported at 2015-May-24 06:33 UTC. Time now 2015-May-24 07:10 UTC.
Position N 40°38' W 074°08'.

Length 36 m; draft 5.3 m.

Type: Ship. MMSI: 366939790.

Date/timePositionNaut miles runAvg speedWind from/ knotsBaromVisibWave heightAir tempDewpointWater temp
2015-May-24 06:33N 40°38' W 074°08'0 0.0
2015-May-24 05:33N 40°38' W 074°08'0 0.0
2015-May-24 04:21N 40°38' W 074°08'0 0.0
2015-May-24 03:33N 40°38' W 074°08'0 0.0
2015-May-24 02:33N 40°38' W 074°08'0 0.0
2015-May-24 01:33N 40°38' W 074°08'0 0.0
2015-May-24 00:33N 40°38' W 074°08'0 0.0
2015-May-23 23:33N 40°38' W 074°08'0 0.0
2015-May-23 22:33N 40°38' W 074°08'0 0.0
2015-May-23 21:34N 40°38' W 074°08'0 0.0
2015-May-23 20:33N 40°38' W 074°08'0 0.0
2015-May-23 19:33N 40°38' W 074°08'0 0.0
2015-May-23 18:33N 40°38' W 074°08'6 6.0
2015-May-23 17:33N 40°40' W 074°00'1 0.7
2015-May-23 16:33N 40°40' W 074°01'4 4.0
2015-May-23 15:33N 40°44' W 074°01'4 3.7
2015-May-23 14:33N 40°40' W 074°03'5 5.1
2015-May-23 13:33N 40°35' W 074°02'3 3.2
2015-May-23 12:33N 40°32' W 074°01'7 6.4
2015-May-23 11:33N 40°29' W 073°54'39 6.4
2015-May-23 05:30N 39°50' W 073°58'6 6.3
2015-May-23 04:33N 39°44' W 073°59'7 6.6
2015-May-23 03:33N 39°38' W 074°00'7 6.7
2015-May-23 02:33N 39°32' W 074°05'7 6.8
2015-May-23 01:29N 39°26' W 074°10'51 6.4
2015-May-22 17:33N 38°49' W 074°55'6 5.9
2015-May-22 16:33N 38°49' W 075°02'6 6.3
2015-May-22 15:33N 38°55' W 075°05'6 6.2
2015-May-22 14:33N 39°01' W 075°09'62 3.2
2015-May-21 19:16N 39°13' W 076°28'0 0.0
2015-May-21 18:32N 39°13' W 076°28'0 0.0
2015-May-21 17:29N 39°13' W 076°28'0 0.0
2015-May-21 11:30N 39°13' W 076°28'3 0.6
2015-May-21 07:13N 39°11' W 076°26'5 7.5
2015-May-21 06:32N 39°09' W 076°19'8 7.8
2015-May-21 05:33N 39°15' W 076°14'8 7.5
2015-May-21 04:27N 39°22' W 076°08'7 7.5
2015-May-21 03:34N 39°26' W 076°01'7 7.3
2015-May-21 02:34N 39°31' W 075°54'7 6.9
2015-May-21 01:33N 39°32' W 075°45'7 7.2
2015-May-21 00:33N 39°33' W 075°36'3 3.4
2015-May-20 23:33N 39°31' W 075°33'5 4.5
2015-May-20 22:34N 39°26' W 075°32'5 5.1
2015-May-20 21:33N 39°22' W 075°28'5 5.5
2015-May-20 20:34N 39°18' W 075°23'4 4.2
2015-May-20 19:33N 39°15' W 075°19'6 5.8
2015-May-20 18:33N 39°10' W 075°16'18 7.8
2015-May-20 16:17N 38°54' W 075°05'7 9.2
2015-May-20 15:33N 38°49' W 075°01'5510.4
2015-May-20 10:18N 39°26' W 074°10'810.7
2015-May-20 09:33N 39°34' W 074°06'1110.9
2015-May-20 08:33N 39°43' W 073°60'1110.9
2015-May-20 07:32N 39°54' W 073°57'2511.3
2015-May-20 05:19N 40°19' W 073°54'1010.2
2015-May-20 04:18N 40°30' W 073°56'8 9.5
2015-May-20 03:30N 40°35' W 074°02'4 3.8
2015-May-20 02:33N 40°39' W 074°04'1 1.3
2015-May-20 01:32N 40°39' W 074°06'0 0.0
2015-May-20 00:31N 40°39' W 074°06'0 0.0
2015-May-19 23:26N 40°39' W 074°06'0 0.0
2015-May-19 22:31N 40°39' W 074°06'0 0.0
2015-May-19 21:33N 40°39' W 074°06'0 0.0
2015-May-19 20:33N 40°39' W 074°06'0 0.0
2015-May-19 19:33N 40°39' W 074°06'0 0.0
2015-May-19 18:33N 40°39' W 074°06'0 0.0
2015-May-19 17:33N 40°39' W 074°06'0 0.0
2015-May-19 16:33N 40°39' W 074°06'1 1.4
2015-May-19 15:33N 40°39' W 074°04'3 3.0
2015-May-19 14:33N 40°40' W 074°00'0 0.0
2015-May-19 13:34N 40°40' W 074°00'4 3.7
2015-May-19 12:33N 40°40' W 074°05'0 0.0
2015-May-19 11:33N 40°40' W 074°05'5 4.7
2015-May-19 10:31N 40°36' W 074°02'4 4.3
2015-May-19 09:33N 40°40' W 074°04'0 0.3
2015-May-19 08:34N 40°40' W 074°04'3 3.1
2015-May-19 07:33N 40°40' W 074°00'0 0.0
2015-May-19 06:33N 40°40' W 074°00'0 0.0
2015-May-19 05:33N 40°40' W 074°00'0 0.0
2015-May-19 04:33N 40°40' W 074°00'0 0.0
2015-May-19 03:34N 40°40' W 074°00'0 0.0
2015-May-19 02:33N 40°40' W 074°00'0 0.0
2015-May-19 01:33N 40°40' W 074°00'0 0.0
2015-May-19 00:33N 40°40' W 074°00'0 0.0
2015-May-18 23:34N 40°40' W 074°00'0 0.0
2015-May-18 22:33N 40°40' W 074°00'0 0.0
2015-May-18 21:33N 40°40' W 074°00'0 0.0
2015-May-18 20:33N 40°40' W 074°00'0 0.0
2015-May-18 19:34N 40°40' W 074°00'0 0.0
2015-May-18 18:33N 40°40' W 074°00'0 0.0
2015-May-18 17:33N 40°40' W 074°00'0 0.0
2015-May-18 16:33N 40°40' W 074°00'0 0.0
2015-May-18 15:34N 40°40' W 074°00'0 0.0
2015-May-18 14:33N 40°40' W 074°00'0 0.0
2015-May-18 13:33N 40°40' W 074°00'0 0.0
2015-May-18 12:33N 40°40' W 074°00'0 0.0
2015-May-18 11:33N 40°40' W 074°00'0 0.0
2015-May-18 10:33N 40°40' W 074°00'0 0.0
2015-May-18 09:33N 40°40' W 074°00'0 0.0
2015-May-18 08:33N 40°40' W 074°00'0 0.0
2015-May-18 07:33N 40°40' W 074°00'0 0.0
2015-May-18 06:33N 40°40' W 074°00'0 0.0
2015-May-18 05:33N 40°40' W 074°00'0 0.0
2015-May-18 04:33N 40°40' W 074°00'0 0.0
2015-May-18 03:33N 40°40' W 074°00'0 0.0
2015-May-18 02:33N 40°40' W 074°00'7 3.3
2015-May-18 00:33N 40°40' W 074°09'1 1.4
2015-May-17 23:33N 40°38' W 074°08'0 0.0
2015-May-17 22:23N 40°38' W 074°08'0 0.0
2015-May-17 21:28N 40°38' W 074°08'0 0.0
2015-May-17 20:33N 40°38' W 074°08'0 0.0
2015-May-17 19:33N 40°38' W 074°08'0 0.0
2015-May-17 18:33N 40°38' W 074°08'0 0.0
2015-May-17 17:25N 40°38' W 074°08'0 0.0
2015-May-17 16:29N 40°38' W 074°08'0 0.0
2015-May-17 15:33N 40°38' W 074°08'0 0.0
2015-May-17 14:26N 40°39' W 074°08'2 2.7
2015-May-17 13:33N 40°41' W 074°09'2 2.1
2015-May-17 12:33N 40°39' W 074°09'1 0.8
2015-May-17 11:33N 40°38' W 074°08'0 0.0
2015-May-17 10:33N 40°38' W 074°08'0 0.0
2015-May-17 09:33N 40°38' W 074°08'0 0.0
2015-May-17 08:33N 40°38' W 074°08'0 0.0
2015-May-17 07:33N 40°38' W 074°08'0 0.0
2015-May-17 06:33N 40°38' W 074°08'0 0.0
2015-May-17 05:33N 40°38' W 074°08'0 0.0
2015-May-17 04:33N 40°38' W 074°08'0 0.0
2015-May-17 03:33N 40°38' W 074°08'0 0.0
2015-May-17 02:16N 40°38' W 074°08'0 0.0
2015-May-17 01:33N 40°38' W 074°08'0 0.0
2015-May-17 00:33N 40°38' W 074°08'0 0.0
2015-May-16 23:33N 40°38' W 074°08'0 0.0
2015-May-16 22:33N 40°38' W 074°08'1 0.5
2015-May-16 20:22N 40°39' W 074°07'0 0.0
2015-May-16 19:25N 40°39' W 074°07'0 0.0
2015-May-16 18:11N 40°39' W 074°07'1 1.7
2015-May-16 17:31N 40°39' W 074°08'6 5.4
2015-May-16 16:28N 40°34' W 074°13'4 4.2
2015-May-16 15:33N 40°38' W 074°12'0 0.2
2015-May-16 14:33N 40°38' W 074°12'4 3.6
2015-May-16 13:20N 40°33' W 074°13'2 1.8
2015-May-16 12:24N 40°33' W 074°15'4 2.2
2015-May-16 10:27N 40°36' W 074°12'3 2.8
2015-May-16 09:33N 40°39' W 074°11'6 5.8
2015-May-16 08:33N 40°39' W 074°04'1 1.1
2015-May-16 07:33N 40°40' W 074°04'0 0.2
2015-May-16 06:33N 40°40' W 074°04'3 3.0
2015-May-16 05:33N 40°38' W 074°08'0 0.0
2015-May-16 04:33N 40°38' W 074°08'0 0.0
2015-May-16 03:33N 40°38' W 074°08'0 0.0
2015-May-16 02:33N 40°38' W 074°08'0 0.0
2015-May-16 01:33N 40°38' W 074°08'0 0.0
2015-May-16 00:33N 40°38' W 074°08'0 0.0
2015-May-15 23:33N 40°38' W 074°08'0 0.0
2015-May-15 22:33N 40°38' W 074°08'0 0.0
2015-May-15 21:33N 40°38' W 074°08'0 0.0
2015-May-15 20:33N 40°38' W 074°08'0 0.0
2015-May-15 19:32N 40°38' W 074°08'0 0.0
2015-May-15 18:33N 40°38' W 074°08'0 0.0
2015-May-15 17:33N 40°38' W 074°08'1 1.0
2015-May-15 16:33N 40°39' W 074°09'2 1.8
2015-May-15 15:33N 40°40' W 074°08'3 2.9
2015-May-15 14:33N 40°39' W 074°05'2 1.8
2015-May-15 13:33N 40°38' W 074°03'4 3.6
2015-May-15 12:33N 40°38' W 074°08'3 2.6
2015-May-15 11:33N 40°41' W 074°09'0 0.3
2015-May-15 10:33N 40°41' W 074°09'2 2.2
2015-May-15 09:33N 40°39' W 074°08'2 2.4
2015-May-15 08:32N 40°39' W 074°11'3 2.6
2015-May-15 07:29N 40°38' W 074°08'0 0.0
2015-May-15 06:33N 40°38' W 074°08'0 0.0
2015-May-15 05:33N 40°38' W 074°08'0 0.0
2015-May-15 04:33N 40°38' W 074°08'0 0.0
2015-May-15 03:30N 40°38' W 074°08'0 0.0
2015-May-15 01:28N 40°38' W 074°08'6 6.7
2015-May-15 00:34N 40°41' W 074°01'1 1.1
2015-May-14 23:33N 40°41' W 074°02'5 4.7
2015-May-14 22:33N 40°40' W 074°08'1 0.6
2015-May-14 21:33N 40°40' W 074°08'2 1.6
2015-May-14 20:33N 40°38' W 074°08'0 0.0
2015-May-14 19:33N 40°38' W 074°08'0 0.0
2015-May-14 18:33N 40°38' W 074°08'0 0.0
2015-May-14 17:33N 40°38' W 074°08'0 0.0
2015-May-14 16:33N 40°38' W 074°08'0 0.0
2015-May-14 15:33N 40°38' W 074°08'0 0.0
2015-May-14 14:16N 40°38' W 074°08'3 0.7
2015-May-14 10:33N 40°41' W 074°09'3 2.6
2015-May-14 09:33N 40°39' W 074°08'0 0.1
2015-May-14 07:17N 40°38' W 074°08'  
Track history (hours):
 
Tides and Currents Weather Stations Pressure Air Temp Water Temp Dewpoint Dewpoint Depression Visibility Wind Speed Wind Dir Waves Ship Positions

Doris Moran

Owner: MORAN TOWING CORPORATION, New Canaan, CT. More information available from US FCC via Universal Licensing System and Coast Guard Vessel Documentation Center.

Last reported at 2015-May-24 06:33 UTC. Time now 2015-May-24 07:10 UTC.
Position N 40°38' W 074°08'.

Length 36 m; draft 5.3 m.

Type: Ship. MMSI: 366939790.

Date/timePositionNaut miles runAvg speedWind from/ knotsBaromVisibWave heightAir tempDewpointWater temp
2015-May-24 06:33N 40°38' W 074°08'0 0.0
2015-May-24 05:33N 40°38' W 074°08'0 0.0
2015-May-24 04:21N 40°38' W 074°08'0 0.0
2015-May-24 03:33N 40°38' W 074°08'0 0.0
2015-May-24 02:33N 40°38' W 074°08'0 0.0
2015-May-24 01:33N 40°38' W 074°08'0 0.0
2015-May-24 00:33N 40°38' W 074°08'0 0.0
2015-May-23 23:33N 40°38' W 074°08'0 0.0
2015-May-23 22:33N 40°38' W 074°08'0 0.0
2015-May-23 21:34N 40°38' W 074°08'0 0.0
2015-May-23 20:33N 40°38' W 074°08'0 0.0
2015-May-23 19:33N 40°38' W 074°08'0 0.0
2015-May-23 18:33N 40°38' W 074°08'6 6.0
2015-May-23 17:33N 40°40' W 074°00'1 0.7
2015-May-23 16:33N 40°40' W 074°01'4 4.0
2015-May-23 15:33N 40°44' W 074°01'4 3.7
2015-May-23 14:33N 40°40' W 074°03'5 5.1
2015-May-23 13:33N 40°35' W 074°02'3 3.2
2015-May-23 12:33N 40°32' W 074°01'7 6.4
2015-May-23 11:33N 40°29' W 073°54'39 6.4
2015-May-23 05:30N 39°50' W 073°58'6 6.3
2015-May-23 04:33N 39°44' W 073°59'7 6.6
2015-May-23 03:33N 39°38' W 074°00'7 6.7
2015-May-23 02:33N 39°32' W 074°05'7 6.8
2015-May-23 01:29N 39°26' W 074°10'51 6.4
2015-May-22 17:33N 38°49' W 074°55'6 5.9
2015-May-22 16:33N 38°49' W 075°02'6 6.3
2015-May-22 15:33N 38°55' W 075°05'6 6.2
2015-May-22 14:33N 39°01' W 075°09'62 3.2
2015-May-21 19:16N 39°13' W 076°28'0 0.0
2015-May-21 18:32N 39°13' W 076°28'0 0.0
2015-May-21 17:29N 39°13' W 076°28'0 0.0
2015-May-21 11:30N 39°13' W 076°28'3 0.6
2015-May-21 07:13N 39°11' W 076°26'5 7.5
2015-May-21 06:32N 39°09' W 076°19'8 7.8
2015-May-21 05:33N 39°15' W 076°14'8 7.5
2015-May-21 04:27N 39°22' W 076°08'7 7.5
2015-May-21 03:34N 39°26' W 076°01'7 7.3
2015-May-21 02:34N 39°31' W 075°54'7 6.9
2015-May-21 01:33N 39°32' W 075°45'7 7.2
2015-May-21 00:33N 39°33' W 075°36'3 3.4
2015-May-20 23:33N 39°31' W 075°33'5 4.5
2015-May-20 22:34N 39°26' W 075°32'5 5.1
2015-May-20 21:33N 39°22' W 075°28'5 5.5
2015-May-20 20:34N 39°18' W 075°23'4 4.2
2015-May-20 19:33N 39°15' W 075°19'6 5.8
2015-May-20 18:33N 39°10' W 075°16'18 7.8
2015-May-20 16:17N 38°54' W 075°05'7 9.2
2015-May-20 15:33N 38°49' W 075°01'5510.4
2015-May-20 10:18N 39°26' W 074°10'810.7
2015-May-20 09:33N 39°34' W 074°06'1110.9
2015-May-20 08:33N 39°43' W 073°60'1110.9
2015-May-20 07:32N 39°54' W 073°57'2511.3
2015-May-20 05:19N 40°19' W 073°54'1010.2
2015-May-20 04:18N 40°30' W 073°56'8 9.5
2015-May-20 03:30N 40°35' W 074°02'4 3.8
2015-May-20 02:33N 40°39' W 074°04'1 1.3
2015-May-20 01:32N 40°39' W 074°06'0 0.0
2015-May-20 00:31N 40°39' W 074°06'0 0.0
2015-May-19 23:26N 40°39' W 074°06'0 0.0
2015-May-19 22:31N 40°39' W 074°06'0 0.0
2015-May-19 21:33N 40°39' W 074°06'0 0.0
2015-May-19 20:33N 40°39' W 074°06'0 0.0
2015-May-19 19:33N 40°39' W 074°06'0 0.0
2015-May-19 18:33N 40°39' W 074°06'0 0.0
2015-May-19 17:33N 40°39' W 074°06'0 0.0
2015-May-19 16:33N 40°39' W 074°06'1 1.4
2015-May-19 15:33N 40°39' W 074°04'3 3.0
2015-May-19 14:33N 40°40' W 074°00'0 0.0
2015-May-19 13:34N 40°40' W 074°00'4 3.7
2015-May-19 12:33N 40°40' W 074°05'0 0.0
2015-May-19 11:33N 40°40' W 074°05'5 4.7
2015-May-19 10:31N 40°36' W 074°02'4 4.3
2015-May-19 09:33N 40°40' W 074°04'0 0.3
2015-May-19 08:34N 40°40' W 074°04'3 3.1
2015-May-19 07:33N 40°40' W 074°00'0 0.0
2015-May-19 06:33N 40°40' W 074°00'0 0.0
2015-May-19 05:33N 40°40' W 074°00'0 0.0
2015-May-19 04:33N 40°40' W 074°00'0 0.0
2015-May-19 03:34N 40°40' W 074°00'0 0.0
2015-May-19 02:33N 40°40' W 074°00'0 0.0
2015-May-19 01:33N 40°40' W 074°00'0 0.0
2015-May-19 00:33N 40°40' W 074°00'0 0.0
2015-May-18 23:34N 40°40' W 074°00'0 0.0
2015-May-18 22:33N 40°40' W 074°00'0 0.0
2015-May-18 21:33N 40°40' W 074°00'0 0.0
2015-May-18 20:33N 40°40' W 074°00'0 0.0
2015-May-18 19:34N 40°40' W 074°00'0 0.0
2015-May-18 18:33N 40°40' W 074°00'0 0.0
2015-May-18 17:33N 40°40' W 074°00'0 0.0
2015-May-18 16:33N 40°40' W 074°00'0 0.0
2015-May-18 15:34N 40°40' W 074°00'0 0.0
2015-May-18 14:33N 40°40' W 074°00'0 0.0
2015-May-18 13:33N 40°40' W 074°00'0 0.0
2015-May-18 12:33N 40°40' W 074°00'0 0.0
2015-May-18 11:33N 40°40' W 074°00'0 0.0
2015-May-18 10:33N 40°40' W 074°00'0 0.0
2015-May-18 09:33N 40°40' W 074°00'0 0.0
2015-May-18 08:33N 40°40' W 074°00'0 0.0
2015-May-18 07:33N 40°40' W 074°00'0 0.0
2015-May-18 06:33N 40°40' W 074°00'0 0.0
2015-May-18 05:33N 40°40' W 074°00'0 0.0
2015-May-18 04:33N 40°40' W 074°00'0 0.0
2015-May-18 03:33N 40°40' W 074°00'0 0.0
2015-May-18 02:33N 40°40' W 074°00'7 3.3
2015-May-18 00:33N 40°40' W 074°09'1 1.4
2015-May-17 23:33N 40°38' W 074°08'0 0.0
2015-May-17 22:23N 40°38' W 074°08'0 0.0
2015-May-17 21:28N 40°38' W 074°08'0 0.0
2015-May-17 20:33N 40°38' W 074°08'0 0.0
2015-May-17 19:33N 40°38' W 074°08'0 0.0
2015-May-17 18:33N 40°38' W 074°08'0 0.0
2015-May-17 17:25N 40°38' W 074°08'0 0.0
2015-May-17 16:29N 40°38' W 074°08'0 0.0
2015-May-17 15:33N 40°38' W 074°08'0 0.0
2015-May-17 14:26N 40°39' W 074°08'2 2.7
2015-May-17 13:33N 40°41' W 074°09'2 2.1
2015-May-17 12:33N 40°39' W 074°09'1 0.8
2015-May-17 11:33N 40°38' W 074°08'0 0.0
2015-May-17 10:33N 40°38' W 074°08'0 0.0
2015-May-17 09:33N 40°38' W 074°08'0 0.0
2015-May-17 08:33N 40°38' W 074°08'0 0.0
2015-May-17 07:33N 40°38' W 074°08'0 0.0
2015-May-17 06:33N 40°38' W 074°08'0 0.0
2015-May-17 05:33N 40°38' W 074°08'0 0.0
2015-May-17 04:33N 40°38' W 074°08'0 0.0
2015-May-17 03:33N 40°38' W 074°08'0 0.0
2015-May-17 02:16N 40°38' W 074°08'0 0.0
2015-May-17 01:33N 40°38' W 074°08'0 0.0
2015-May-17 00:33N 40°38' W 074°08'0 0.0
2015-May-16 23:33N 40°38' W 074°08'0 0.0
2015-May-16 22:33N 40°38' W 074°08'1 0.5
2015-May-16 20:22N 40°39' W 074°07'0 0.0
2015-May-16 19:25N 40°39' W 074°07'0 0.0
2015-May-16 18:11N 40°39' W 074°07'1 1.7
2015-May-16 17:31N 40°39' W 074°08'6 5.4
2015-May-16 16:28N 40°34' W 074°13'4 4.2
2015-May-16 15:33N 40°38' W 074°12'0 0.2
2015-May-16 14:33N 40°38' W 074°12'4 3.6
2015-May-16 13:20N 40°33' W 074°13'2 1.8
2015-May-16 12:24N 40°33' W 074°15'4 2.2
2015-May-16 10:27N 40°36' W 074°12'3 2.8
2015-May-16 09:33N 40°39' W 074°11'6 5.8
2015-May-16 08:33N 40°39' W 074°04'1 1.1
2015-May-16 07:33N 40°40' W 074°04'0 0.2
2015-May-16 06:33N 40°40' W 074°04'3 3.0
2015-May-16 05:33N 40°38' W 074°08'0 0.0
2015-May-16 04:33N 40°38' W 074°08'0 0.0
2015-May-16 03:33N 40°38' W 074°08'0 0.0
2015-May-16 02:33N 40°38' W 074°08'0 0.0
2015-May-16 01:33N 40°38' W 074°08'0 0.0
2015-May-16 00:33N 40°38' W 074°08'0 0.0
2015-May-15 23:33N 40°38' W 074°08'0 0.0
2015-May-15 22:33N 40°38' W 074°08'0 0.0
2015-May-15 21:33N 40°38' W 074°08'0 0.0
2015-May-15 20:33N 40°38' W 074°08'0 0.0
2015-May-15 19:32N 40°38' W 074°08'0 0.0
2015-May-15 18:33N 40°38' W 074°08'0 0.0
2015-May-15 17:33N 40°38' W 074°08'1 1.0
2015-May-15 16:33N 40°39' W 074°09'2 1.8
2015-May-15 15:33N 40°40' W 074°08'3 2.9
2015-May-15 14:33N 40°39' W 074°05'2 1.8
2015-May-15 13:33N 40°38' W 074°03'4 3.6
2015-May-15 12:33N 40°38' W 074°08'3 2.6
2015-May-15 11:33N 40°41' W 074°09'0 0.3
2015-May-15 10:33N 40°41' W 074°09'2 2.2
2015-May-15 09:33N 40°39' W 074°08'2 2.4
2015-May-15 08:32N 40°39' W 074°11'3 2.6
2015-May-15 07:29N 40°38' W 074°08'0 0.0
2015-May-15 06:33N 40°38' W 074°08'0 0.0
2015-May-15 05:33N 40°38' W 074°08'0 0.0
2015-May-15 04:33N 40°38' W 074°08'0 0.0
2015-May-15 03:30N 40°38' W 074°08'0 0.0
2015-May-15 01:28N 40°38' W 074°08'6 6.7
2015-May-15 00:34N 40°41' W 074°01'1 1.1
2015-May-14 23:33N 40°41' W 074°02'5 4.7
2015-May-14 22:33N 40°40' W 074°08'1 0.6
2015-May-14 21:33N 40°40' W 074°08'2 1.6
2015-May-14 20:33N 40°38' W 074°08'0 0.0
2015-May-14 19:33N 40°38' W 074°08'0 0.0
2015-May-14 18:33N 40°38' W 074°08'0 0.0
2015-May-14 17:33N 40°38' W 074°08'0 0.0
2015-May-14 16:33N 40°38' W 074°08'0 0.0
2015-May-14 15:33N 40°38' W 074°08'0 0.0
2015-May-14 14:16N 40°38' W 074°08'3 0.7
2015-May-14 10:33N 40°41' W 074°09'3 2.6
2015-May-14 09:33N 40°39' W 074°08'0 0.1
2015-May-14 07:17N 40°38' W 074°08'  

Dump ship's entire track history